sensor_id;sensor_type;location;lat;lon;timestamp;P1;durP1;ratioP1;P2;durP2;ratioP2
69979;SDS011;57318;56.232;43.944;2023-04-10T00:01:27;32.27;;;13.13;;
69979;SDS011;57318;56.232;43.944;2023-04-10T00:03:59;21.77;;;10.45;;
69979;SDS011;57318;56.232;43.944;2023-04-10T00:06:25;28.83;;;11.75;;
69979;SDS011;57318;56.232;43.944;2023-04-10T00:11:17;14.73;;;7.03;;
69979;SDS011;57318;56.232;43.944;2023-04-10T00:13:43;13.53;;;6.10;;
69979;SDS011;57318;56.232;43.944;2023-04-10T00:16:09;13.40;;;5.83;;
69979;SDS011;57318;56.232;43.944;2023-04-10T00:18:35;11.90;;;5.53;;
69979;SDS011;57318;56.232;43.944;2023-04-10T00:21:01;12.57;;;5.63;;
69979;SDS011;57318;56.232;43.944;2023-04-10T00:23:28;13.85;;;6.30;;
69979;SDS011;57318;56.232;43.944;2023-04-10T00:25:56;13.13;;;6.40;;
69979;SDS011;57318;56.232;43.944;2023-04-10T00:28:21;18.90;;;6.93;;
69979;SDS011;57318;56.232;43.944;2023-04-10T00:30:47;26.27;;;6.60;;
69979;SDS011;57318;56.232;43.944;2023-04-10T00:33:13;19.40;;;6.70;;
69979;SDS011;57318;56.232;43.944;2023-04-10T00:35:38;17.63;;;7.37;;
69979;SDS011;57318;56.232;43.944;2023-04-10T00:38:04;17.80;;;8.73;;
69979;SDS011;57318;56.232;43.944;2023-04-10T00:40:30;22.63;;;10.47;;
69979;SDS011;57318;56.232;43.944;2023-04-10T00:42:56;22.10;;;9.77;;
69979;SDS011;57318;56.232;43.944;2023-04-10T00:45:22;26.47;;;10.37;;
69979;SDS011;57318;56.232;43.944;2023-04-10T00:47:47;23.23;;;10.60;;
69979;SDS011;57318;56.232;43.944;2023-04-10T00:50:13;23.97;;;11.47;;
69979;SDS011;57318;56.232;43.944;2023-04-10T00:52:39;26.50;;;10.70;;
69979;SDS011;57318;56.232;43.944;2023-04-10T00:55:05;26.20;;;11.90;;
69979;SDS011;57318;56.232;43.944;2023-04-10T00:57:32;24.73;;;11.55;;
69979;SDS011;57318;56.232;43.944;2023-04-10T00:59:58;17.20;;;9.73;;
69979;SDS011;57318;56.232;43.944;2023-04-10T01:02:24;20.35;;;9.93;;
69979;SDS011;57318;56.232;43.944;2023-04-10T01:04:50;24.67;;;9.97;;
69979;SDS011;57318;56.232;43.944;2023-04-10T01:10:17;22.50;;;10.23;;
69979;SDS011;57318;56.232;43.944;2023-04-10T01:13:00;24.35;;;10.75;;
69979;SDS011;57318;56.232;43.944;2023-04-10T01:16:07;24.70;;;11.35;;
69979;SDS011;57318;56.232;43.944;2023-04-10T01:21:34;25.95;;;11.98;;
69979;SDS011;57318;56.232;43.944;2023-04-10T01:29:52;22.20;;;10.25;;
69979;SDS011;57318;56.232;43.944;2023-04-10T01:32:22;23.95;;;10.75;;
69979;SDS011;57318;56.232;43.944;2023-04-10T01:34:50;25.15;;;11.30;;
69979;SDS011;57318;56.232;43.944;2023-04-10T01:37:29;29.20;;;11.50;;
69979;SDS011;57318;56.232;43.944;2023-04-10T01:42:31;27.55;;;12.95;;
69979;SDS011;57318;56.232;43.944;2023-04-10T01:45:02;27.35;;;15.05;;
69979;SDS011;57318;56.232;43.944;2023-04-10T01:47:30;38.03;;;14.30;;
69979;SDS011;57318;56.232;43.944;2023-04-10T01:49:56;22.75;;;12.45;;
69979;SDS011;57318;56.232;43.944;2023-04-10T01:54:49;19.92;;;10.45;;
69979;SDS011;57318;56.232;43.944;2023-04-10T01:57:17;19.30;;;10.77;;
69979;SDS011;57318;56.232;43.944;2023-04-10T01:59:43;19.25;;;11.02;;
69979;SDS011;57318;56.232;43.944;2023-04-10T02:02:09;21.23;;;10.73;;
69979;SDS011;57318;56.232;43.944;2023-04-10T02:04:36;17.55;;;10.52;;
69979;SDS011;57318;56.232;43.944;2023-04-10T02:07:03;16.20;;;9.93;;
69979;SDS011;57318;56.232;43.944;2023-04-10T02:09:57;15.07;;;9.45;;
69979;SDS011;57318;56.232;43.944;2023-04-10T02:12:30;16.00;;;9.77;;
69979;SDS011;57318;56.232;43.944;2023-04-10T02:15:01;17.13;;;9.25;;
69979;SDS011;57318;56.232;43.944;2023-04-10T02:17:29;19.08;;;11.07;;
69979;SDS011;57318;56.232;43.944;2023-04-10T02:22:22;19.85;;;11.00;;
69979;SDS011;57318;56.232;43.944;2023-04-10T02:24:50;19.42;;;11.50;;
69979;SDS011;57318;56.232;43.944;2023-04-10T02:27:29;21.42;;;12.73;;
69979;SDS011;57318;56.232;43.944;2023-04-10T02:29:56;20.95;;;13.18;;
69979;SDS011;57318;56.232;43.944;2023-04-10T02:32:22;25.97;;;14.03;;
69979;SDS011;57318;56.232;43.944;2023-04-10T02:34:48;29.92;;;16.50;;
69979;SDS011;57318;56.232;43.944;2023-04-10T02:37:14;24.03;;;14.07;;
69979;SDS011;57318;56.232;43.944;2023-04-10T02:39:40;22.95;;;13.57;;
69979;SDS011;57318;56.232;43.944;2023-04-10T02:42:06;22.27;;;11.00;;
69979;SDS011;57318;56.232;43.944;2023-04-10T02:44:32;20.17;;;11.63;;
69979;SDS011;57318;56.232;43.944;2023-04-10T02:46:57;23.93;;;12.00;;
69979;SDS011;57318;56.232;43.944;2023-04-10T02:49:23;20.90;;;12.60;;
69979;SDS011;57318;56.232;43.944;2023-04-10T02:51:49;30.10;;;17.70;;
69979;SDS011;57318;56.232;43.944;2023-04-10T02:54:15;27.40;;;15.77;;
69979;SDS011;57318;56.232;43.944;2023-04-10T02:56:41;26.40;;;14.00;;
69979;SDS011;57318;56.232;43.944;2023-04-10T02:59:06;29.07;;;14.43;;
69979;SDS011;57318;56.232;43.944;2023-04-10T03:01:35;44.83;;;23.80;;
69979;SDS011;57318;56.232;43.944;2023-04-10T03:04:03;35.38;;;18.60;;
69979;SDS011;57318;56.232;43.944;2023-04-10T03:06:29;29.73;;;13.38;;
69979;SDS011;57318;56.232;43.944;2023-04-10T03:08:55;30.23;;;11.87;;
69979;SDS011;57318;56.232;43.944;2023-04-10T03:11:21;19.37;;;9.97;;
69979;SDS011;57318;56.232;43.944;2023-04-10T03:13:47;31.27;;;11.27;;
69979;SDS011;57318;56.232;43.944;2023-04-10T03:16:13;26.20;;;11.60;;
69979;SDS011;57318;56.232;43.944;2023-04-10T03:18:40;22.75;;;10.82;;
69979;SDS011;57318;56.232;43.944;2023-04-10T03:21:05;20.67;;;8.80;;
69979;SDS011;57318;56.232;43.944;2023-04-10T03:23:31;17.08;;;8.55;;
69979;SDS011;57318;56.232;43.944;2023-04-10T03:25:57;16.27;;;7.23;;
69979;SDS011;57318;56.232;43.944;2023-04-10T03:28:22;18.37;;;7.37;;
69979;SDS011;57318;56.232;43.944;2023-04-10T03:30:48;15.93;;;6.80;;
69979;SDS011;57318;56.232;43.944;2023-04-10T03:33:14;14.80;;;7.15;;
69979;SDS011;57318;56.232;43.944;2023-04-10T03:35:40;14.80;;;6.83;;
69979;SDS011;57318;56.232;43.944;2023-04-10T03:38:07;15.13;;;6.70;;
69979;SDS011;57318;56.232;43.944;2023-04-10T03:40:33;16.38;;;6.65;;
69979;SDS011;57318;56.232;43.944;2023-04-10T03:42:59;22.47;;;7.97;;
69979;SDS011;57318;56.232;43.944;2023-04-10T03:45:25;23.33;;;8.05;;
69979;SDS011;57318;56.232;43.944;2023-04-10T03:47:51;15.33;;;7.93;;
69979;SDS011;57318;56.232;43.944;2023-04-10T03:50:17;15.75;;;8.23;;
69979;SDS011;57318;56.232;43.944;2023-04-10T03:52:43;17.55;;;7.80;;
69979;SDS011;57318;56.232;43.944;2023-04-10T03:55:09;16.77;;;8.53;;
69979;SDS011;57318;56.232;43.944;2023-04-10T03:57:34;19.90;;;8.17;;
69979;SDS011;57318;56.232;43.944;2023-04-10T04:00:00;25.87;;;9.50;;
69979;SDS011;57318;56.232;43.944;2023-04-10T04:02:28;17.75;;;7.57;;
69979;SDS011;57318;56.232;43.944;2023-04-10T04:04:54;22.97;;;12.07;;
69979;SDS011;57318;56.232;43.944;2023-04-10T04:07:19;20.27;;;9.37;;
69979;SDS011;57318;56.232;43.944;2023-04-10T04:09:45;19.60;;;7.93;;
69979;SDS011;57318;56.232;43.944;2023-04-10T04:12:11;20.53;;;8.07;;
69979;SDS011;57318;56.232;43.944;2023-04-10T04:14:36;20.83;;;8.33;;
69979;SDS011;57318;56.232;43.944;2023-04-10T04:17:02;29.47;;;13.37;;
69979;SDS011;57318;56.232;43.944;2023-04-10T04:19:28;28.67;;;9.23;;
69979;SDS011;57318;56.232;43.944;2023-04-10T04:21:54;25.33;;;7.90;;
69979;SDS011;57318;56.232;43.944;2023-04-10T04:24:19;25.87;;;8.13;;
69979;SDS011;57318;56.232;43.944;2023-04-10T04:26:46;39.38;;;8.77;;
69979;SDS011;57318;56.232;43.944;2023-04-10T04:29:12;25.07;;;8.37;;
69979;SDS011;57318;56.232;43.944;2023-04-10T04:31:37;44.13;;;8.77;;
69979;SDS011;57318;56.232;43.944;2023-04-10T04:34:03;102.60;;;11.50;;
69979;SDS011;57318;56.232;43.944;2023-04-10T04:36:28;50.33;;;8.73;;
69979;SDS011;57318;56.232;43.944;2023-04-10T04:38:55;48.05;;;8.07;;
69979;SDS011;57318;56.232;43.944;2023-04-10T04:41:21;31.50;;;6.07;;
69979;SDS011;57318;56.232;43.944;2023-04-10T04:43:46;29.47;;;7.13;;
69979;SDS011;57318;56.232;43.944;2023-04-10T04:46:13;22.15;;;6.32;;
69979;SDS011;57318;56.232;43.944;2023-04-10T04:48:40;20.42;;;6.80;;
69979;SDS011;57318;56.232;43.944;2023-04-10T04:51:06;30.40;;;6.70;;
69979;SDS011;57318;56.232;43.944;2023-04-10T04:53:31;20.07;;;7.00;;
69979;SDS011;57318;56.232;43.944;2023-04-10T04:55:57;41.67;;;7.50;;
69979;SDS011;57318;56.232;43.944;2023-04-10T04:58:23;17.97;;;6.43;;
69979;SDS011;57318;56.232;43.944;2023-04-10T05:00:50;22.77;;;6.93;;
69979;SDS011;57318;56.232;43.944;2023-04-10T05:03:16;27.48;;;7.30;;
69979;SDS011;57318;56.232;43.944;2023-04-10T05:05:42;36.70;;;9.10;;
69979;SDS011;57318;56.232;43.944;2023-04-10T05:08:08;46.97;;;11.73;;
69979;SDS011;57318;56.232;43.944;2023-04-10T05:13:00;20.05;;;8.43;;
69979;SDS011;57318;56.232;43.944;2023-04-10T05:15:26;28.07;;;9.57;;
69979;SDS011;57318;56.232;43.944;2023-04-10T05:17:51;27.77;;;10.30;;
69979;SDS011;57318;56.232;43.944;2023-04-10T05:20:17;27.63;;;9.93;;
69979;SDS011;57318;56.232;43.944;2023-04-10T05:22:43;38.15;;;10.90;;
69979;SDS011;57318;56.232;43.944;2023-04-10T05:25:10;21.73;;;9.55;;
69979;SDS011;57318;56.232;43.944;2023-04-10T05:27:35;22.07;;;9.80;;
69979;SDS011;57318;56.232;43.944;2023-04-10T05:30:01;26.50;;;11.03;;
69979;SDS011;57318;56.232;43.944;2023-04-10T05:32:28;36.70;;;12.10;;
69979;SDS011;57318;56.232;43.944;2023-04-10T05:34:54;24.73;;;11.37;;
69979;SDS011;57318;56.232;43.944;2023-04-10T05:37:20;87.00;;;29.27;;
69979;SDS011;57318;56.232;43.944;2023-04-10T05:39:45;28.13;;;11.83;;
69979;SDS011;57318;56.232;43.944;2023-04-10T05:42:11;25.40;;;11.37;;
69979;SDS011;57318;56.232;43.944;2023-04-10T05:44:38;24.65;;;10.45;;
69979;SDS011;57318;56.232;43.944;2023-04-10T05:47:03;35.08;;;11.85;;
69979;SDS011;57318;56.232;43.944;2023-04-10T05:49:29;21.05;;;10.65;;
69979;SDS011;57318;56.232;43.944;2023-04-10T05:51:55;24.73;;;9.70;;
69979;SDS011;57318;56.232;43.944;2023-04-10T05:54:21;22.43;;;9.37;;
69979;SDS011;57318;56.232;43.944;2023-04-10T05:56:47;27.13;;;10.43;;
69979;SDS011;57318;56.232;43.944;2023-04-10T05:59:12;28.00;;;10.60;;
69979;SDS011;57318;56.232;43.944;2023-04-10T06:01:38;44.00;;;11.03;;
69979;SDS011;57318;56.232;43.944;2023-04-10T06:04:05;36.25;;;10.70;;
69979;SDS011;57318;56.232;43.944;2023-04-10T06:06:30;21.97;;;9.77;;
69979;SDS011;57318;56.232;43.944;2023-04-10T06:11:24;22.60;;;9.02;;
69979;SDS011;57318;56.232;43.944;2023-04-10T06:13:51;30.92;;;9.70;;
69979;SDS011;57318;56.232;43.944;2023-04-10T06:16:17;31.38;;;9.68;;
69979;SDS011;57318;56.232;43.944;2023-04-10T06:18:43;23.57;;;10.30;;
69979;SDS011;57318;56.232;43.944;2023-04-10T06:21:08;26.57;;;10.47;;
69979;SDS011;57318;56.232;43.944;2023-04-10T06:23:34;26.47;;;9.50;;
69979;SDS011;57318;56.232;43.944;2023-04-10T06:28:27;21.10;;;9.45;;
69979;SDS011;57318;56.232;43.944;2023-04-10T06:30:53;23.48;;;10.13;;
69979;SDS011;57318;56.232;43.944;2023-04-10T06:33:19;27.30;;;10.20;;
69979;SDS011;57318;56.232;43.944;2023-04-10T06:35:45;20.25;;;9.80;;
69979;SDS011;57318;56.232;43.944;2023-04-10T06:38:10;22.50;;;9.67;;
69979;SDS011;57318;56.232;43.944;2023-04-10T06:40:36;24.60;;;9.95;;
69979;SDS011;57318;56.232;43.944;2023-04-10T06:43:02;21.85;;;10.52;;
69979;SDS011;57318;56.232;43.944;2023-04-10T06:45:28;19.27;;;9.25;;
69979;SDS011;57318;56.232;43.944;2023-04-10T06:47:53;22.98;;;9.30;;
69979;SDS011;57318;56.232;43.944;2023-04-10T06:50:19;16.67;;;7.78;;
69979;SDS011;57318;56.232;43.944;2023-04-10T06:52:45;19.02;;;8.23;;
69979;SDS011;57318;56.232;43.944;2023-04-10T06:55:11;14.73;;;6.82;;
69979;SDS011;57318;56.232;43.944;2023-04-10T06:57:38;23.27;;;7.80;;
69979;SDS011;57318;56.232;43.944;2023-04-10T07:00:05;19.02;;;6.85;;
69979;SDS011;57318;56.232;43.944;2023-04-10T07:02:31;23.20;;;7.65;;
69979;SDS011;57318;56.232;43.944;2023-04-10T07:07:22;18.67;;;6.70;;
69979;SDS011;57318;56.232;43.944;2023-04-10T07:12:13;13.50;;;7.00;;
69979;SDS011;57318;56.232;43.944;2023-04-10T07:14:39;15.00;;;7.00;;
69979;SDS011;57318;56.232;43.944;2023-04-10T07:17:05;11.55;;;6.30;;
69979;SDS011;57318;56.232;43.944;2023-04-10T07:19:31;14.93;;;6.90;;
69979;SDS011;57318;56.232;43.944;2023-04-10T07:21:56;16.73;;;6.65;;
69979;SDS011;57318;56.232;43.944;2023-04-10T07:24:22;9.30;;;5.60;;
69979;SDS011;57318;56.232;43.944;2023-04-10T07:26:48;10.88;;;5.60;;
69979;SDS011;57318;56.232;43.944;2023-04-10T07:29:14;11.27;;;5.75;;
69979;SDS011;57318;56.232;43.944;2023-04-10T07:31:40;9.60;;;5.50;;
69979;SDS011;57318;56.232;43.944;2023-04-10T07:34:06;8.65;;;4.70;;
69979;SDS011;57318;56.232;43.944;2023-04-10T07:36:32;10.18;;;5.00;;
69979;SDS011;57318;56.232;43.944;2023-04-10T07:38:58;12.68;;;4.88;;
69979;SDS011;57318;56.232;43.944;2023-04-10T07:41:23;9.27;;;4.88;;
69979;SDS011;57318;56.232;43.944;2023-04-10T07:43:49;9.95;;;5.57;;
69979;SDS011;57318;56.232;43.944;2023-04-10T07:46:15;5.40;;;4.40;;
69979;SDS011;57318;56.232;43.944;2023-04-10T07:48:41;7.93;;;4.07;;
69979;SDS011;57318;56.232;43.944;2023-04-10T07:51:08;6.85;;;3.97;;
69979;SDS011;57318;56.232;43.944;2023-04-10T07:53:35;5.78;;;4.20;;
69979;SDS011;57318;56.232;43.944;2023-04-10T07:56:01;11.25;;;4.03;;
69979;SDS011;57318;56.232;43.944;2023-04-10T07:58:27;7.25;;;4.18;;
69979;SDS011;57318;56.232;43.944;2023-04-10T08:00:53;5.53;;;4.00;;
69979;SDS011;57318;56.232;43.944;2023-04-10T08:03:18;5.07;;;3.80;;
69979;SDS011;57318;56.232;43.944;2023-04-10T08:05:44;5.03;;;3.92;;
69979;SDS011;57318;56.232;43.944;2023-04-10T08:08:10;6.63;;;3.60;;
69979;SDS011;57318;56.232;43.944;2023-04-10T08:10:36;7.43;;;4.20;;
69979;SDS011;57318;56.232;43.944;2023-04-10T08:13:04;4.47;;;3.83;;
69979;SDS011;57318;56.232;43.944;2023-04-10T08:15:30;8.77;;;4.82;;
69979;SDS011;57318;56.232;43.944;2023-04-10T08:17:55;8.10;;;4.72;;
69979;SDS011;57318;56.232;43.944;2023-04-10T08:20:21;13.88;;;4.68;;
69979;SDS011;57318;56.232;43.944;2023-04-10T08:22:47;6.88;;;4.25;;
69979;SDS011;57318;56.232;43.944;2023-04-10T08:25:13;10.88;;;4.68;;
69979;SDS011;57318;56.232;43.944;2023-04-10T08:27:39;13.82;;;4.38;;
69979;SDS011;57318;56.232;43.944;2023-04-10T08:30:05;6.75;;;4.10;;
69979;SDS011;57318;56.232;43.944;2023-04-10T08:32:31;7.53;;;4.80;;
69979;SDS011;57318;56.232;43.944;2023-04-10T08:34:57;5.63;;;3.90;;
69979;SDS011;57318;56.232;43.944;2023-04-10T08:37:23;5.95;;;4.05;;
69979;SDS011;57318;56.232;43.944;2023-04-10T08:39:50;6.38;;;4.22;;
69979;SDS011;57318;56.232;43.944;2023-04-10T08:42:16;7.15;;;3.83;;
69979;SDS011;57318;56.232;43.944;2023-04-10T08:44:41;7.75;;;3.83;;
69979;SDS011;57318;56.232;43.944;2023-04-10T08:47:07;6.47;;;4.07;;
69979;SDS011;57318;56.232;43.944;2023-04-10T08:49:40;7.70;;;4.32;;
69979;SDS011;57318;56.232;43.944;2023-04-10T08:52:28;7.30;;;4.03;;
69979;SDS011;57318;56.232;43.944;2023-04-10T08:54:57;6.57;;;4.40;;
69979;SDS011;57318;56.232;43.944;2023-04-10T08:57:28;7.78;;;4.80;;
69979;SDS011;57318;56.232;43.944;2023-04-10T08:59:54;8.82;;;4.32;;
69979;SDS011;57318;56.232;43.944;2023-04-10T09:02:20;6.40;;;3.90;;
69979;SDS011;57318;56.232;43.944;2023-04-10T09:04:47;6.60;;;3.70;;
69979;SDS011;57318;56.232;43.944;2023-04-10T09:07:19;12.30;;;4.57;;
69979;SDS011;57318;56.232;43.944;2023-04-10T09:09:45;19.08;;;4.65;;
69979;SDS011;57318;56.232;43.944;2023-04-10T09:12:11;11.48;;;4.32;;
69979;SDS011;57318;56.232;43.944;2023-04-10T09:14:39;9.50;;;4.28;;
69979;SDS011;57318;56.232;43.944;2023-04-10T09:19:40;5.95;;;4.22;;
69979;SDS011;57318;56.232;43.944;2023-04-10T09:22:07;6.82;;;4.40;;
69979;SDS011;57318;56.232;43.944;2023-04-10T09:24:40;6.20;;;4.43;;
69979;SDS011;57318;56.232;43.944;2023-04-10T09:27:08;8.63;;;4.82;;
69979;SDS011;57318;56.232;43.944;2023-04-10T09:29:38;21.52;;;5.32;;
69979;SDS011;57318;56.232;43.944;2023-04-10T09:32:13;7.63;;;4.10;;
69979;SDS011;57318;56.232;43.944;2023-04-10T09:34:58;8.57;;;4.70;;
69979;SDS011;57318;56.232;43.944;2023-04-10T09:37:33;6.38;;;4.07;;
69979;SDS011;57318;56.232;43.944;2023-04-10T09:40:00;12.80;;;5.78;;
69979;SDS011;57318;56.232;43.944;2023-04-10T09:42:36;10.75;;;5.15;;
69979;SDS011;57318;56.232;43.944;2023-04-10T09:45:02;5.50;;;4.17;;
69979;SDS011;57318;56.232;43.944;2023-04-10T09:47:29;8.23;;;4.45;;
69979;SDS011;57318;56.232;43.944;2023-04-10T09:49:56;8.93;;;4.38;;
69979;SDS011;57318;56.232;43.944;2023-04-10T09:52:25;6.90;;;4.00;;
69979;SDS011;57318;56.232;43.944;2023-04-10T09:54:56;10.48;;;4.40;;
69979;SDS011;57318;56.232;43.944;2023-04-10T09:57:24;5.55;;;3.90;;
69979;SDS011;57318;56.232;43.944;2023-04-10T09:59:52;8.07;;;4.05;;
69979;SDS011;57318;56.232;43.944;2023-04-10T10:02:19;6.43;;;3.83;;
69979;SDS011;57318;56.232;43.944;2023-04-10T10:04:49;7.35;;;4.20;;
69979;SDS011;57318;56.232;43.944;2023-04-10T10:07:16;12.18;;;4.70;;
69979;SDS011;57318;56.232;43.944;2023-04-10T10:09:46;13.98;;;4.70;;
69979;SDS011;57318;56.232;43.944;2023-04-10T10:12:16;10.63;;;4.50;;
69979;SDS011;57318;56.232;43.944;2023-04-10T10:14:51;7.90;;;4.53;;
69979;SDS011;57318;56.232;43.944;2023-04-10T10:17:22;14.35;;;5.38;;
69979;SDS011;57318;56.232;43.944;2023-04-10T10:20:10;6.03;;;4.38;;
69979;SDS011;57318;56.232;43.944;2023-04-10T10:22:41;9.60;;;4.72;;
69979;SDS011;57318;56.232;43.944;2023-04-10T10:25:08;9.48;;;4.45;;
69979;SDS011;57318;56.232;43.944;2023-04-10T10:27:38;6.03;;;4.18;;
69979;SDS011;57318;56.232;43.944;2023-04-10T10:30:06;3.95;;;3.65;;
69979;SDS011;57318;56.232;43.944;2023-04-10T10:32:36;6.60;;;4.28;;
69979;SDS011;57318;56.232;43.944;2023-04-10T10:35:02;6.72;;;3.90;;
69979;SDS011;57318;56.232;43.944;2023-04-10T10:37:29;6.22;;;4.28;;
69979;SDS011;57318;56.232;43.944;2023-04-10T10:43:26;6.10;;;4.20;;
69979;SDS011;57318;56.232;43.944;2023-04-10T10:48:28;11.82;;;4.70;;
69979;SDS011;57318;56.232;43.944;2023-04-10T10:50:54;8.60;;;4.50;;
69979;SDS011;57318;56.232;43.944;2023-04-10T10:53:45;8.60;;;4.60;;
69979;SDS011;57318;56.232;43.944;2023-04-10T10:58:50;7.47;;;4.30;;
69979;SDS011;57318;56.232;43.944;2023-04-10T11:01:18;11.13;;;5.30;;
69979;SDS011;57318;56.232;43.944;2023-04-10T11:03:45;9.57;;;5.18;;
69979;SDS011;57318;56.232;43.944;2023-04-10T11:06:13;8.52;;;5.05;;
69979;SDS011;57318;56.232;43.944;2023-04-10T11:11:17;5.93;;;4.60;;
69979;SDS011;57318;56.232;43.944;2023-04-10T11:16:22;13.52;;;4.63;;
69979;SDS011;57318;56.232;43.944;2023-04-10T11:31:54;6.03;;;4.13;;
69979;SDS011;57318;56.232;43.944;2023-04-10T11:34:22;13.70;;;4.78;;
69979;SDS011;57318;56.232;43.944;2023-04-10T11:36:48;13.32;;;7.15;;
69979;SDS011;57318;56.232;43.944;2023-04-10T11:39:14;18.95;;;5.10;;
69979;SDS011;57318;56.232;43.944;2023-04-10T11:41:49;13.45;;;4.85;;
69979;SDS011;57318;56.232;43.944;2023-04-10T11:44:17;6.75;;;4.50;;
69979;SDS011;57318;56.232;43.944;2023-04-10T11:46:52;6.85;;;4.50;;
69979;SDS011;57318;56.232;43.944;2023-04-10T11:49:22;8.55;;;4.93;;
69979;SDS011;57318;56.232;43.944;2023-04-10T11:51:52;8.23;;;4.38;;
69979;SDS011;57318;56.232;43.944;2023-04-10T11:54:20;9.23;;;4.70;;
69979;SDS011;57318;56.232;43.944;2023-04-10T11:59:29;10.25;;;4.45;;
69979;SDS011;57318;56.232;43.944;2023-04-10T12:02:07;12.07;;;4.60;;
69979;SDS011;57318;56.232;43.944;2023-04-10T12:04:40;9.65;;;4.32;;
69979;SDS011;57318;56.232;43.944;2023-04-10T12:07:07;7.13;;;4.28;;
69979;SDS011;57318;56.232;43.944;2023-04-10T12:09:33;14.98;;;4.50;;
69979;SDS011;57318;56.232;43.944;2023-04-10T12:12:00;8.98;;;4.43;;
69979;SDS011;57318;56.232;43.944;2023-04-10T12:14:31;7.68;;;4.20;;
69979;SDS011;57318;56.232;43.944;2023-04-10T12:17:03;9.55;;;4.57;;
69979;SDS011;57318;56.232;43.944;2023-04-10T12:19:33;8.10;;;4.78;;
69979;SDS011;57318;56.232;43.944;2023-04-10T12:26:07;13.60;;;4.57;;
69979;SDS011;57318;56.232;43.944;2023-04-10T12:28:35;6.60;;;3.90;;
69979;SDS011;57318;56.232;43.944;2023-04-10T12:31:03;5.65;;;3.78;;
69979;SDS011;57318;56.232;43.944;2023-04-10T12:33:30;8.60;;;3.97;;
69979;SDS011;57318;56.232;43.944;2023-04-10T12:35:56;7.20;;;3.60;;
69979;SDS011;57318;56.232;43.944;2023-04-10T12:38:41;6.82;;;4.40;;
69979;SDS011;57318;56.232;43.944;2023-04-10T12:41:10;10.43;;;4.25;;
69979;SDS011;57318;56.232;43.944;2023-04-10T12:43:37;6.32;;;4.20;;
69979;SDS011;57318;56.232;43.944;2023-04-10T12:46:05;11.32;;;4.00;;
69979;SDS011;57318;56.232;43.944;2023-04-10T12:48:32;7.90;;;4.38;;
69979;SDS011;57318;56.232;43.944;2023-04-10T12:50:58;9.07;;;4.10;;
69979;SDS011;57318;56.232;43.944;2023-04-10T12:53:28;8.73;;;4.50;;
69979;SDS011;57318;56.232;43.944;2023-04-10T12:56:03;9.70;;;4.60;;
69979;SDS011;57318;56.232;43.944;2023-04-10T12:58:31;5.53;;;3.88;;
69979;SDS011;57318;56.232;43.944;2023-04-10T13:00:58;14.30;;;5.20;;
69979;SDS011;57318;56.232;43.944;2023-04-10T13:03:35;5.90;;;4.05;;
69979;SDS011;57318;56.232;43.944;2023-04-10T13:06:02;10.05;;;4.82;;
69979;SDS011;57318;56.232;43.944;2023-04-10T13:08:30;6.55;;;4.00;;
69979;SDS011;57318;56.232;43.944;2023-04-10T13:10:57;11.43;;;4.20;;
69979;SDS011;57318;56.232;43.944;2023-04-10T13:13:27;24.02;;;6.80;;
69979;SDS011;57318;56.232;43.944;2023-04-10T13:15:57;12.88;;;4.70;;
69979;SDS011;57318;56.232;43.944;2023-04-10T13:18:24;10.60;;;4.43;;
69979;SDS011;57318;56.232;43.944;2023-04-10T13:23:15;9.80;;;4.30;;
69979;SDS011;57318;56.232;43.944;2023-04-10T13:25:42;7.60;;;4.47;;
69979;SDS011;57318;56.232;43.944;2023-04-10T13:30:37;8.82;;;4.10;;
69979;SDS011;57318;56.232;43.944;2023-04-10T13:33:04;7.50;;;4.43;;
69979;SDS011;57318;56.232;43.944;2023-04-10T13:37:55;11.95;;;4.53;;
69979;SDS011;57318;56.232;43.944;2023-04-10T13:40:21;17.27;;;4.97;;
69979;SDS011;57318;56.232;43.944;2023-04-10T13:42:47;9.80;;;4.57;;
69979;SDS011;57318;56.232;43.944;2023-04-10T13:45:13;5.35;;;3.92;;
69979;SDS011;57318;56.232;43.944;2023-04-10T13:47:39;7.78;;;3.88;;
69979;SDS011;57318;56.232;43.944;2023-04-10T13:52:31;5.95;;;3.67;;
69979;SDS011;57318;56.232;43.944;2023-04-10T13:54:56;16.27;;;4.55;;
69979;SDS011;57318;56.232;43.944;2023-04-10T13:57:22;28.30;;;5.57;;
69979;SDS011;57318;56.232;43.944;2023-04-10T13:59:48;6.07;;;3.45;;
69979;SDS011;57318;56.232;43.944;2023-04-10T14:02:13;21.02;;;4.60;;
69979;SDS011;57318;56.232;43.944;2023-04-10T14:04:39;28.55;;;4.97;;
69979;SDS011;57318;56.232;43.944;2023-04-10T14:07:07;15.80;;;4.10;;
69979;SDS011;57318;56.232;43.944;2023-04-10T14:09:34;21.30;;;4.65;;
69979;SDS011;57318;56.232;43.944;2023-04-10T14:11:59;7.70;;;3.92;;
69979;SDS011;57318;56.232;43.944;2023-04-10T14:14:26;33.92;;;5.00;;
69979;SDS011;57318;56.232;43.944;2023-04-10T14:16:52;21.88;;;4.80;;
69979;SDS011;57318;56.232;43.944;2023-04-10T14:19:18;7.47;;;4.47;;
69979;SDS011;57318;56.232;43.944;2023-04-10T14:21:43;11.82;;;4.45;;
69979;SDS011;57318;56.232;43.944;2023-04-10T14:24:09;7.13;;;3.80;;
69979;SDS011;57318;56.232;43.944;2023-04-10T14:29:01;9.23;;;3.78;;
69979;SDS011;57318;56.232;43.944;2023-04-10T14:31:27;17.88;;;4.47;;
69979;SDS011;57318;56.232;43.944;2023-04-10T14:33:52;13.43;;;4.22;;
69979;SDS011;57318;56.232;43.944;2023-04-10T14:36:18;14.50;;;4.00;;
69979;SDS011;57318;56.232;43.944;2023-04-10T14:38:44;12.80;;;4.35;;
69979;SDS011;57318;56.232;43.944;2023-04-10T14:41:09;15.18;;;4.65;;
69979;SDS011;57318;56.232;43.944;2023-04-10T14:43:35;24.08;;;5.07;;
69979;SDS011;57318;56.232;43.944;2023-04-10T14:46:02;8.80;;;4.55;;
69979;SDS011;57318;56.232;43.944;2023-04-10T14:48:28;34.72;;;4.70;;
69979;SDS011;57318;56.232;43.944;2023-04-10T14:50:54;54.70;;;6.95;;
69979;SDS011;57318;56.232;43.944;2023-04-10T14:53:23;18.60;;;4.18;;
69979;SDS011;57318;56.232;43.944;2023-04-10T14:55:49;13.90;;;4.30;;
69979;SDS011;57318;56.232;43.944;2023-04-10T14:58:15;10.05;;;3.55;;
69979;SDS011;57318;56.232;43.944;2023-04-10T15:00:40;7.23;;;3.47;;
69979;SDS011;57318;56.232;43.944;2023-04-10T15:03:07;10.93;;;3.60;;
69979;SDS011;57318;56.232;43.944;2023-04-10T15:05:33;11.40;;;3.87;;
69979;SDS011;57318;56.232;43.944;2023-04-10T15:07:59;14.67;;;4.40;;
69979;SDS011;57318;56.232;43.944;2023-04-10T15:10:24;11.97;;;3.90;;
69979;SDS011;57318;56.232;43.944;2023-04-10T15:12:52;29.42;;;5.30;;
69979;SDS011;57318;56.232;43.944;2023-04-10T15:15:18;22.73;;;4.80;;
69979;SDS011;57318;56.232;43.944;2023-04-10T15:17:44;23.03;;;4.47;;
69979;SDS011;57318;56.232;43.944;2023-04-10T15:20:09;15.20;;;4.67;;
69979;SDS011;57318;56.232;43.944;2023-04-10T15:22:35;6.22;;;3.92;;
69979;SDS011;57318;56.232;43.944;2023-04-10T15:25:01;9.33;;;4.00;;
69979;SDS011;57318;56.232;43.944;2023-04-10T15:27:28;21.73;;;4.53;;
69979;SDS011;57318;56.232;43.944;2023-04-10T15:29:55;15.93;;;4.40;;
69979;SDS011;57318;56.232;43.944;2023-04-10T15:32:21;25.65;;;5.45;;
69979;SDS011;57318;56.232;43.944;2023-04-10T15:34:46;39.40;;;5.83;;
69979;SDS011;57318;56.232;43.944;2023-04-10T15:37:15;24.83;;;5.00;;
69979;SDS011;57318;56.232;43.944;2023-04-10T15:39:41;27.37;;;5.53;;
69979;SDS011;57318;56.232;43.944;2023-04-10T15:42:06;59.53;;;8.20;;
69979;SDS011;57318;56.232;43.944;2023-04-10T15:44:32;25.67;;;5.78;;
69979;SDS011;57318;56.232;43.944;2023-04-10T15:46:58;20.50;;;5.13;;